Terminal Aerodrome Forecast
Issued by NWS

Current Version | Previous Version | Text Only | Print | Product List | Glossary Off
Versions: 1 2 3 4 5 6 7 8 9 10 11 12 13 14 15 16 17 18 19 20 21 22 23 24 25 26 27 28 29

000
FTUS41 KRLX 072102 AAA
TAFCKB
TAF AMD
KCKB 072102Z 0721/0818 21012G18KT P6SM VCTS BKN035CB
     FM080400 22006KT 3SM BR VCTS BKN030CB
     FM080800 22006KT 3SM BR VCTS OVC020CB
     FM081100 23008KT 3SM BR VCTS SCT007 OVC010CB=

USA.gov is the U.S. government's official web portal to all federal, state and local government web resources and services.